createdAt,value
2017-09-26T00:00:13.395Z,34.65
2017-09-26T00:02:41.019Z,27.87
2017-09-26T00:05:08.706Z,29.70
2017-09-26T00:07:36.329Z,31.97
2017-09-26T00:10:04.749Z,30.77
2017-09-26T00:12:32.399Z,30.77
2017-09-26T00:15:00.951Z,32.10
2017-09-26T00:17:29.364Z,31.60
2017-09-26T00:19:56.984Z,32.20
2017-09-26T00:22:25.467Z,30.43
2017-09-26T00:24:53.860Z,35.70
2017-09-26T00:27:22.252Z,34.83
2017-09-26T00:29:49.904Z,34.13
2017-09-26T00:32:17.536Z,33.05
2017-09-26T00:34:45.944Z,31.07
2017-09-26T00:37:14.335Z,29.77
2017-09-26T00:39:42.004Z,30.05
2017-09-26T00:42:09.677Z,27.60
2017-09-26T00:44:37.303Z,28.80
2017-09-26T00:47:05.729Z,30.83
2017-09-26T00:49:33.364Z,32.87
2017-09-26T00:52:02.172Z,33.80
2017-09-26T00:54:29.799Z,29.87
2017-09-26T00:56:58.236Z,33.20
2017-09-26T00:59:25.877Z,34.97
2017-09-26T01:01:53.504Z,42.73
2017-09-26T01:04:21.932Z,32.50
2017-09-26T01:06:50.310Z,32.07
2017-09-26T01:09:17.969Z,40.80
2017-09-26T01:11:45.591Z,42.90
2017-09-26T01:14:14.184Z,60.93
2017-09-26T01:16:41.984Z,43.27
2017-09-26T01:19:09.855Z,65.95
2017-09-26T01:21:37.822Z,53.83
2017-09-26T01:24:05.502Z,39.55
2017-09-26T01:26:34.069Z,38.27
2017-09-26T01:29:03.962Z,40.28
2017-09-26T01:31:31.632Z,43.50
2017-09-26T01:33:59.251Z,46.97
2017-09-26T01:36:26.875Z,44.03
2017-09-26T01:38:54.520Z,40.10
2017-09-26T01:41:22.183Z,38.93
2017-09-26T01:43:49.843Z,34.17
2017-09-26T01:46:17.524Z,35.00
2017-09-26T01:48:45.287Z,33.47
2017-09-26T01:51:12.912Z,32.33
2017-09-26T01:53:40.555Z,29.80
2017-09-26T01:56:10.548Z,28.90
2017-09-26T01:58:40.719Z,32.27
2017-09-26T02:01:08.400Z,36.98
2017-09-26T02:03:36.032Z,47.40
2017-09-26T02:06:04.748Z,37.47
2017-09-26T02:08:32.373Z,42.60
2017-09-26T02:11:01.712Z,48.70
2017-09-26T02:13:29.345Z,54.00
2017-09-26T02:15:57.856Z,56.00
2017-09-26T02:18:25.516Z,49.50
2017-09-26T02:20:53.217Z,35.13
2017-09-26T02:23:20.960Z,32.55
2017-09-26T02:25:48.599Z,34.47
2017-09-26T02:28:16.248Z,33.53
2017-09-26T02:30:44.651Z,36.37
2017-09-26T02:33:12.319Z,38.83
2017-09-26T02:35:39.948Z,34.97
2017-09-26T02:38:08.340Z,33.28
2017-09-26T02:40:35.979Z,30.97
2017-09-26T02:43:04.704Z,35.00
2017-09-26T02:45:32.351Z,41.53
2017-09-26T02:48:01.672Z,32.50
2017-09-26T02:50:29.436Z,34.10
2017-09-26T02:52:57.058Z,40.20
2017-09-26T02:55:25.451Z,39.20
2017-09-26T02:57:53.955Z,40.93
2017-09-26T03:00:22.204Z,37.20
2017-09-26T03:02:50.626Z,36.30
2017-09-26T03:05:18.260Z,35.70
2017-09-26T03:07:45.916Z,40.10
2017-09-26T03:10:14.312Z,37.65
2017-09-26T03:12:41.935Z,38.60
2017-09-26T03:15:09.579Z,51.73
2017-09-26T03:17:37.211Z,54.03
2017-09-26T03:20:04.856Z,51.93
2017-09-26T03:22:32.483Z,45.67
2017-09-26T03:25:01.121Z,54.60
2017-09-26T03:27:28.749Z,54.20
2017-09-26T03:29:57.160Z,47.13
2017-09-26T03:32:24.924Z,39.00
2017-09-26T03:34:53.033Z,41.10
2017-09-26T03:37:20.681Z,40.83
2017-09-26T03:39:48.304Z,51.10
2017-09-26T03:42:15.984Z,47.27
2017-09-26T03:44:43.649Z,46.00
2017-09-26T03:47:12.025Z,43.00
2017-09-26T03:49:39.702Z,44.40
2017-09-26T03:52:07.360Z,50.00
2017-09-26T03:54:35.013Z,57.00
2017-09-26T03:57:04.815Z,62.10
2017-09-26T03:59:32.483Z,46.83
2017-09-26T04:02:00.109Z,46.37
2017-09-26T04:04:28.511Z,34.72
2017-09-26T04:06:56.168Z,38.93
2017-09-26T04:09:24.564Z,50.07
2017-09-26T04:11:52.207Z,45.53
2017-09-26T04:14:20.600Z,54.67
2017-09-26T04:16:48.240Z,49.40
2017-09-26T04:19:16.665Z,47.10
2017-09-26T04:21:44.305Z,53.87
2017-09-26T04:24:11.988Z,33.57
2017-09-26T04:26:39.616Z,33.40
2017-09-26T04:29:08.063Z,33.37
2017-09-26T04:31:35.716Z,32.30
2017-09-26T04:34:04.112Z,36.45
2017-09-26T04:36:31.776Z,41.20
2017-09-26T04:39:01.836Z,35.90
2017-09-26T04:41:29.932Z,43.93
2017-09-26T04:43:57.720Z,47.27
2017-09-26T04:46:25.348Z,47.10
2017-09-26T04:48:53.027Z,45.37
2017-09-26T04:51:20.652Z,53.23
2017-09-26T04:53:49.799Z,49.40
2017-09-26T04:56:17.530Z,52.27
2017-09-26T04:58:45.155Z,67.13
2017-09-26T05:01:13.579Z,50.60
2017-09-26T05:03:41.189Z,68.37
2017-09-26T05:06:10.272Z,51.34
2017-09-26T05:08:37.954Z,50.23
2017-09-26T05:11:06.328Z,50.20
2017-09-26T05:13:33.932Z,53.57
2017-09-26T05:16:03.788Z,46.40
2017-09-26T05:18:31.400Z,45.83
2017-09-26T05:20:58.971Z,41.27
2017-09-26T05:23:26.591Z,52.10
2017-09-26T05:25:54.248Z,59.57
2017-09-26T05:28:21.911Z,46.33
2017-09-26T05:30:49.504Z,38.60
2017-09-26T05:33:17.080Z,45.25
2017-09-26T05:35:44.694Z,45.70
2017-09-26T05:38:12.296Z,34.88
2017-09-26T05:40:39.868Z,38.63
2017-09-26T05:43:07.484Z,38.80
2017-09-26T05:45:35.143Z,36.17
2017-09-26T05:48:04.840Z,32.25
2017-09-26T05:50:32.512Z,34.53
2017-09-26T05:53:00.085Z,30.10
2017-09-26T05:55:28.474Z,37.77
2017-09-26T05:57:56.812Z,38.73
2017-09-26T06:00:24.395Z,41.67
2017-09-26T06:02:51.993Z,36.73
2017-09-26T06:05:19.573Z,41.55
2017-09-26T06:07:47.187Z,36.70
2017-09-26T06:10:15.527Z,31.23
2017-09-26T06:12:43.100Z,33.10
2017-09-26T06:15:10.704Z,33.97
2017-09-26T06:17:38.401Z,35.20
2017-09-26T06:20:05.997Z,34.83
2017-09-26T06:22:33.595Z,37.10
2017-09-26T06:25:02.048Z,34.57
2017-09-26T06:27:29.643Z,38.53
2017-09-26T06:29:57.228Z,33.83
2017-09-26T06:32:24.823Z,33.20
2017-09-26T06:34:52.395Z,35.77
2017-09-26T06:37:20.764Z,31.50
2017-09-26T06:39:49.100Z,33.10
2017-09-26T06:42:16.704Z,30.13
2017-09-26T06:44:44.271Z,29.67
2017-09-26T06:47:13.372Z,28.60
2017-09-26T06:49:40.968Z,28.58
2017-09-26T06:52:08.552Z,27.92
2017-09-26T06:54:36.169Z,27.93
2017-09-26T06:57:04.820Z,29.17
2017-09-26T06:59:32.496Z,26.47
2017-09-26T07:02:00.065Z,26.63
2017-09-26T07:04:28.427Z,26.67
2017-09-26T07:06:56.000Z,24.47
2017-09-26T07:09:23.668Z,26.37
2017-09-26T07:11:51.324Z,21.87
2017-09-26T07:14:20.829Z,24.10
2017-09-26T07:16:48.403Z,24.20
2017-09-26T07:19:16.741Z,20.75
2017-09-26T07:21:44.345Z,22.40
2017-09-26T07:24:12.680Z,18.43
2017-09-26T07:26:40.276Z,21.80
2017-09-26T07:29:08.104Z,21.73
2017-09-26T07:31:35.985Z,23.63
2017-09-26T07:34:04.671Z,21.40
2017-09-26T07:36:32.241Z,19.13
2017-09-26T07:38:59.837Z,29.00
2017-09-26T07:41:28.190Z,35.73
2017-09-26T07:43:55.856Z,33.90
2017-09-26T07:46:23.516Z,22.90
2017-09-26T07:48:51.382Z,24.30
2017-09-26T07:51:18.956Z,21.58
2017-09-26T07:53:47.325Z,23.10
2017-09-26T07:56:15.682Z,22.20
2017-09-26T07:58:43.253Z,20.90
2017-09-26T08:01:11.435Z,22.90
2017-09-26T08:03:40.359Z,20.20
2017-09-26T08:06:09.243Z,22.67
2017-09-26T08:08:38.164Z,22.17
2017-09-26T08:11:05.737Z,19.48
2017-09-26T08:13:33.328Z,19.30
2017-09-26T08:16:01.926Z,20.10
2017-09-26T08:18:29.528Z,18.30
2017-09-26T08:20:57.104Z,17.73
2017-09-26T08:23:24.710Z,20.30
2017-09-26T08:25:52.280Z,20.47
2017-09-26T08:28:20.640Z,19.03
2017-09-26T08:30:49.024Z,18.30
2017-09-26T08:33:16.612Z,20.27
2017-09-26T08:35:44.948Z,19.23
2017-09-26T08:38:12.632Z,19.27
2017-09-26T08:40:40.209Z,15.30
2017-09-26T08:43:08.977Z,13.93
2017-09-26T08:45:38.048Z,15.07
2017-09-26T08:48:05.629Z,15.50
2017-09-26T08:50:33.225Z,15.40
2017-09-26T08:53:02.876Z,16.25
2017-09-26T08:55:31.232Z,15.50
2017-09-26T08:57:58.797Z,15.10
2017-09-26T09:00:26.400Z,14.60
2017-09-26T09:02:53.972Z,13.50
2017-09-26T09:05:22.347Z,13.17
2017-09-26T09:07:50.240Z,14.40
2017-09-26T09:10:17.836Z,14.03
2017-09-26T09:12:45.411Z,15.33
2017-09-26T09:15:13.097Z,14.87
2017-09-26T09:17:40.680Z,16.03
2017-09-26T09:20:09.037Z,16.83
2017-09-26T09:22:36.632Z,17.20
2017-09-26T09:25:04.204Z,18.10
2017-09-26T09:27:31.796Z,22.10
2017-09-26T09:29:59.480Z,17.57
2017-09-26T09:32:27.146Z,17.47
2017-09-26T09:34:54.723Z,19.03
2017-09-26T09:37:23.391Z,18.90
2017-09-26T09:39:50.967Z,19.10
2017-09-26T09:42:19.332Z,20.40
2017-09-26T09:44:46.927Z,19.73
2017-09-26T09:47:14.516Z,19.55
2017-09-26T09:49:42.216Z,20.10
2017-09-26T09:52:09.809Z,20.65
2017-09-26T09:54:38.360Z,20.90
2017-09-26T09:57:05.945Z,25.43
2017-09-26T09:59:34.281Z,22.80
2017-09-26T10:02:04.004Z,36.50
2017-09-26T10:04:31.571Z,17.50
2017-09-26T10:06:59.167Z,20.27
2017-09-26T10:09:26.747Z,18.83
2017-09-26T10:11:54.350Z,20.13
2017-09-26T10:14:21.922Z,17.30
2017-09-26T10:16:50.396Z,18.80
2017-09-26T10:19:17.978Z,19.53
2017-09-26T10:21:46.322Z,18.80
2017-09-26T10:24:14.001Z,18.37
2017-09-26T10:26:41.668Z,20.60
2017-09-26T10:29:09.265Z,20.90
2017-09-26T10:31:36.837Z,19.83
2017-09-26T10:34:04.441Z,18.97
2017-09-26T10:36:32.109Z,17.03
2017-09-26T10:38:59.765Z,18.67
2017-09-26T10:41:28.193Z,18.23
2017-09-26T10:43:56.137Z,18.20
2017-09-26T10:46:24.500Z,20.30
2017-09-26T10:48:53.589Z,22.80
2017-09-26T10:51:21.364Z,28.47
2017-09-26T10:53:49.700Z,23.70
2017-09-26T10:56:17.296Z,22.37
2017-09-26T10:58:45.684Z,24.80
2017-09-26T11:01:13.256Z,23.20
2017-09-26T11:03:41.624Z,22.10
2017-09-26T11:06:09.280Z,27.27
2017-09-26T11:08:36.872Z,24.10
2017-09-26T11:11:04.444Z,24.50
2017-09-26T11:13:32.059Z,26.23
2017-09-26T11:15:59.624Z,25.67
2017-09-26T11:18:27.193Z,27.57
2017-09-26T11:20:54.783Z,25.13
2017-09-26T11:23:22.356Z,23.47
2017-09-26T11:25:49.951Z,21.47
2017-09-26T11:28:17.529Z,20.80
2017-09-26T11:30:45.137Z,20.37
2017-09-26T11:33:12.748Z,21.10
2017-09-26T11:35:40.357Z,23.37
2017-09-26T11:38:07.944Z,20.73
2017-09-26T11:40:35.532Z,18.70
2017-09-26T11:43:04.840Z,19.20
2017-09-26T11:45:32.417Z,19.20
2017-09-26T11:48:02.212Z,20.97
2017-09-26T11:50:29.868Z,19.73
2017-09-26T11:52:58.976Z,20.93
2017-09-26T11:55:26.548Z,21.73
2017-09-26T11:57:54.884Z,20.67
2017-09-26T12:00:22.480Z,20.43
2017-09-26T12:02:50.812Z,19.40
2017-09-26T12:05:18.419Z,19.48
2017-09-26T12:07:46.077Z,20.20
2017-09-26T12:10:13.668Z,19.60
2017-09-26T12:12:41.241Z,21.90
2017-09-26T12:15:09.223Z,21.23
2017-09-26T12:17:36.791Z,20.00
2017-09-26T12:20:04.493Z,20.90
2017-09-26T12:22:32.148Z,20.10
2017-09-26T12:25:00.120Z,20.13
2017-09-26T12:27:27.693Z,19.93
2017-09-26T12:29:56.032Z,20.20
2017-09-26T12:32:23.635Z,20.07
2017-09-26T12:34:51.972Z,21.67
2017-09-26T12:37:19.565Z,22.15
2017-09-26T12:39:47.928Z,18.00
2017-09-26T12:42:15.505Z,17.37
2017-09-26T12:44:43.092Z,17.67
2017-09-26T12:47:10.664Z,19.02
2017-09-26T12:49:38.284Z,18.37
2017-09-26T12:52:05.867Z,17.30
2017-09-26T12:54:34.333Z,17.57
2017-09-26T12:57:03.764Z,16.00
2017-09-26T12:59:31.391Z,15.83
2017-09-26T13:01:58.959Z,16.60
2017-09-26T13:04:26.552Z,16.93
2017-09-26T13:06:54.177Z,17.00
2017-09-26T13:09:21.773Z,17.90
2017-09-26T13:11:49.345Z,16.40
2017-09-26T13:14:17.060Z,15.67
2017-09-26T13:16:44.630Z,14.23
2017-09-26T13:19:12.963Z,16.17
2017-09-26T13:21:40.948Z,17.57
2017-09-26T13:24:08.532Z,17.05
2017-09-26T13:26:36.124Z,17.50
2017-09-26T13:29:04.656Z,15.50
2017-09-26T13:31:32.340Z,16.10
2017-09-26T13:33:59.904Z,16.40
2017-09-26T13:36:27.532Z,16.20
2017-09-26T13:38:55.125Z,14.10
2017-09-26T13:41:22.700Z,14.90
2017-09-26T13:43:51.164Z,14.07
2017-09-26T13:46:18.741Z,13.80
2017-09-26T13:48:47.308Z,15.90
2017-09-26T13:51:14.977Z,15.23
2017-09-26T13:53:42.547Z,14.17
2017-09-26T13:56:10.909Z,14.30
2017-09-26T13:58:38.493Z,14.33
2017-09-26T14:01:06.104Z,15.37
2017-09-26T14:03:33.676Z,14.37
2017-09-26T14:06:02.987Z,13.17
2017-09-26T14:08:30.661Z,12.90
2017-09-26T14:10:58.817Z,13.50
2017-09-26T14:13:26.390Z,14.13
2017-09-26T14:15:54.160Z,14.20
2017-09-26T14:18:21.737Z,14.23
2017-09-26T14:20:50.076Z,15.13
2017-09-26T14:23:17.672Z,16.20
2017-09-26T14:25:46.092Z,17.27
2017-09-26T14:28:13.688Z,13.00
2017-09-26T14:30:41.260Z,13.60
2017-09-26T14:33:08.869Z,12.80
2017-09-26T14:35:36.481Z,12.40
2017-09-26T14:38:04.097Z,15.00
2017-09-26T14:40:31.676Z,16.10
2017-09-26T14:42:59.263Z,13.70
2017-09-26T14:45:27.680Z,12.97
2017-09-26T14:47:55.411Z,11.80
2017-09-26T14:50:24.484Z,11.93
2017-09-26T14:52:52.058Z,12.52
2017-09-26T14:55:19.656Z,12.82
2017-09-26T14:57:48.024Z,13.40
2017-09-26T15:00:16.384Z,15.13
2017-09-26T15:02:44.052Z,13.20
2017-09-26T15:05:11.673Z,12.63
2017-09-26T15:07:39.247Z,12.20
2017-09-26T15:10:06.936Z,13.33
2017-09-26T15:12:34.652Z,11.47
2017-09-26T15:15:04.771Z,12.37
2017-09-26T15:17:32.442Z,12.40
2017-09-26T15:20:01.152Z,14.77
2017-09-26T15:22:28.731Z,11.73
2017-09-26T15:24:56.395Z,11.83
2017-09-26T15:27:24.776Z,11.77
2017-09-26T15:29:52.368Z,10.80
2017-09-26T15:32:19.956Z,11.25
2017-09-26T15:34:47.524Z,9.73
2017-09-26T15:37:15.124Z,11.70
2017-09-26T15:39:42.696Z,10.87
2017-09-26T15:42:11.060Z,12.00
2017-09-26T15:44:38.723Z,11.00
2017-09-26T15:47:06.376Z,12.50
2017-09-26T15:49:33.952Z,10.53
2017-09-26T15:52:02.574Z,10.10
2017-09-26T15:54:30.920Z,11.65
2017-09-26T15:56:59.255Z,9.07
2017-09-26T15:59:26.856Z,10.37
2017-09-26T16:01:55.232Z,10.53
2017-09-26T16:04:22.824Z,8.60
2017-09-26T16:06:50.449Z,8.40
2017-09-26T16:09:18.044Z,8.40
2017-09-26T16:11:45.668Z,9.60
2017-09-26T16:14:13.265Z,10.80
2017-09-26T16:16:40.897Z,9.17
2017-09-26T16:19:08.491Z,8.97
2017-09-26T16:21:36.112Z,9.47
2017-09-26T16:24:05.012Z,11.57
2017-09-26T16:26:33.653Z,8.97
2017-09-26T16:29:02.101Z,10.17
2017-09-26T16:31:30.463Z,9.80
2017-09-26T16:33:58.804Z,9.77
2017-09-26T16:36:26.516Z,9.43
2017-09-26T16:38:54.852Z,10.00
2017-09-26T16:41:22.453Z,9.20
2017-09-26T16:43:50.796Z,9.20
2017-09-26T16:46:18.780Z,11.65
2017-09-26T16:48:46.448Z,12.50
2017-09-26T16:51:14.777Z,9.43
2017-09-26T16:53:42.383Z,10.50
2017-09-26T16:56:10.053Z,9.23
2017-09-26T16:58:37.715Z,9.50
2017-09-26T17:01:05.375Z,10.13
2017-09-26T17:03:32.967Z,11.10
2017-09-26T17:06:02.856Z,11.95
2017-09-26T17:08:30.615Z,11.60
2017-09-26T17:10:58.185Z,12.53
2017-09-26T17:13:25.756Z,12.50
2017-09-26T17:15:54.115Z,13.13
2017-09-26T17:18:21.680Z,13.90
2017-09-26T17:20:49.276Z,13.80
2017-09-26T17:23:16.895Z,13.20
2017-09-26T17:25:44.494Z,15.83
2017-09-26T17:28:12.068Z,17.23
2017-09-26T17:30:39.684Z,16.20
2017-09-26T17:33:07.265Z,14.77
2017-09-26T17:35:35.622Z,15.53
2017-09-26T17:38:04.927Z,13.90
2017-09-26T17:40:32.504Z,15.17
2017-09-26T17:43:01.768Z,15.57
2017-09-26T17:45:29.456Z,14.43
2017-09-26T17:47:57.792Z,13.70
2017-09-26T17:50:25.600Z,14.07
2017-09-26T17:52:53.941Z,13.47
2017-09-26T17:55:21.695Z,12.87
2017-09-26T17:57:49.299Z,13.23
2017-09-26T18:00:16.884Z,14.33
2017-09-26T18:02:45.256Z,13.90
2017-09-26T18:05:13.597Z,14.68
2017-09-26T18:07:41.968Z,13.13
2017-09-26T18:10:09.656Z,14.07
2017-09-26T18:12:37.232Z,12.87
2017-09-26T18:15:05.747Z,14.03
2017-09-26T18:17:33.315Z,14.00
2017-09-26T18:20:02.769Z,13.35
2017-09-26T18:22:31.189Z,11.87
2017-09-26T18:24:58.758Z,12.10
2017-09-26T18:27:26.347Z,12.37
2017-09-26T18:29:53.983Z,11.70
2017-09-26T18:32:21.732Z,11.02
2017-09-26T18:34:49.305Z,10.40
2017-09-26T18:37:16.932Z,11.50
2017-09-26T18:39:45.400Z,11.70
2017-09-26T18:42:13.117Z,11.43
2017-09-26T18:44:40.721Z,11.30
2017-09-26T18:47:08.438Z,11.65
2017-09-26T18:49:36.099Z,10.80
2017-09-26T18:52:04.963Z,11.75
2017-09-26T18:54:33.484Z,12.57
2017-09-26T18:57:02.911Z,10.83
2017-09-26T18:59:30.504Z,12.20
2017-09-26T19:01:58.891Z,12.15
2017-09-26T19:04:27.439Z,10.80
2017-09-26T19:06:55.061Z,11.93
2017-09-26T19:09:22.659Z,11.20
2017-09-26T19:11:50.283Z,11.63
2017-09-26T19:14:18.991Z,10.73
2017-09-26T19:16:46.607Z,11.53
2017-09-26T19:19:15.033Z,11.53
2017-09-26T19:21:42.653Z,12.73
2017-09-26T19:24:11.063Z,10.97
2017-09-26T19:26:38.672Z,11.80
2017-09-26T19:29:07.803Z,12.10
2017-09-26T19:31:35.479Z,11.30
2017-09-26T19:34:04.872Z,11.80
2017-09-26T19:36:32.547Z,11.30
2017-09-26T19:39:01.069Z,12.27
2017-09-26T19:41:28.688Z,11.80
2017-09-26T19:43:56.840Z,11.30
2017-09-26T19:46:25.257Z,11.33
2017-09-26T19:48:52.913Z,10.90
2017-09-26T19:51:20.535Z,12.23
2017-09-26T19:53:48.335Z,14.37
2017-09-26T19:56:15.955Z,15.70
2017-09-26T19:58:43.580Z,16.30
2017-09-26T20:01:11.224Z,15.80
2017-09-26T20:03:38.848Z,17.07
2017-09-26T20:06:07.676Z,18.87
2017-09-26T20:08:35.295Z,18.60
2017-09-26T20:11:04.617Z,18.67
2017-09-26T20:13:32.403Z,20.52
2017-09-26T20:16:00.627Z,20.53
2017-09-26T20:18:28.244Z,19.47
2017-09-26T20:20:55.887Z,20.70
2017-09-26T20:23:23.455Z,20.83
2017-09-26T20:25:51.047Z,19.97
2017-09-26T20:28:18.635Z,21.67
2017-09-26T20:30:46.357Z,22.13
2017-09-26T20:33:13.959Z,22.10
2017-09-26T20:35:41.580Z,23.43
2017-09-26T20:38:09.601Z,22.55
2017-09-26T20:40:37.987Z,23.77
2017-09-26T20:43:06.371Z,23.30
2017-09-26T20:45:34.831Z,22.80
2017-09-26T20:48:03.851Z,24.67
2017-09-26T20:50:32.212Z,25.10
2017-09-26T20:53:02.228Z,24.50
2017-09-26T20:55:29.891Z,27.90
2017-09-26T20:57:57.755Z,25.80
2017-09-26T21:00:25.333Z,25.93
2017-09-26T21:02:53.668Z,26.02
2017-09-26T21:05:21.267Z,26.45
2017-09-26T21:07:49.649Z,27.10
2017-09-26T21:10:17.979Z,26.83
2017-09-26T21:12:45.635Z,25.47
2017-09-26T21:15:13.232Z,26.35
2017-09-26T21:17:40.796Z,28.57
2017-09-26T21:20:08.403Z,26.87
2017-09-26T21:22:36.025Z,26.27
2017-09-26T21:25:03.856Z,27.47
2017-09-26T21:27:31.420Z,28.07
2017-09-26T21:29:59.117Z,30.00
2017-09-26T21:32:26.768Z,30.10
2017-09-26T21:34:55.849Z,31.70
2017-09-26T21:37:23.456Z,27.27
2017-09-26T21:39:52.528Z,27.60
2017-09-26T21:42:20.184Z,29.30
2017-09-26T21:44:47.852Z,31.37
2017-09-26T21:47:16.252Z,32.50
2017-09-26T21:49:44.616Z,31.87
2017-09-26T21:52:12.193Z,31.05
2017-09-26T21:54:40.556Z,32.67
2017-09-26T21:57:08.216Z,32.25
2017-09-26T21:59:35.880Z,32.13
2017-09-26T22:02:04.568Z,31.87
2017-09-26T22:04:32.923Z,32.77
2017-09-26T22:07:03.699Z,30.70
2017-09-26T22:09:32.086Z,34.53
2017-09-26T22:12:01.347Z,34.33
2017-09-26T22:14:28.943Z,33.73
2017-09-26T22:16:57.448Z,33.40
2017-09-26T22:19:25.045Z,36.60
2017-09-26T22:21:52.646Z,36.20
2017-09-26T22:24:21.001Z,36.58
2017-09-26T22:26:48.598Z,33.20
2017-09-26T22:29:16.284Z,36.75
2017-09-26T22:31:43.885Z,38.90
2017-09-26T22:34:11.455Z,37.70
2017-09-26T22:36:39.320Z,39.70
2017-09-26T22:39:06.900Z,37.10
2017-09-26T22:41:35.245Z,39.13
2017-09-26T22:44:04.560Z,41.67
2017-09-26T22:46:32.996Z,40.20
2017-09-26T22:49:02.236Z,40.83
2017-09-26T22:51:29.900Z,40.73
2017-09-26T22:53:57.988Z,40.60
2017-09-26T22:56:26.352Z,36.87
2017-09-26T22:58:53.928Z,38.57
2017-09-26T23:01:22.396Z,40.17
2017-09-26T23:03:49.968Z,39.80
2017-09-26T23:06:18.355Z,37.35
2017-09-26T23:08:46.712Z,40.23
2017-09-26T23:11:14.318Z,41.90
2017-09-26T23:13:41.892Z,43.70
2017-09-26T23:16:09.497Z,41.70
2017-09-26T23:18:37.977Z,41.55
2017-09-26T23:21:05.848Z,41.60
2017-09-26T23:23:33.425Z,39.77
2017-09-26T23:26:02.997Z,41.20
2017-09-26T23:28:30.591Z,41.17
2017-09-26T23:30:58.929Z,40.70
2017-09-26T23:33:26.528Z,39.87
2017-09-26T23:35:54.868Z,39.30
2017-09-26T23:38:22.563Z,40.00
2017-09-26T23:40:50.142Z,38.70
2017-09-26T23:43:18.508Z,40.25
2017-09-26T23:45:46.881Z,39.10
2017-09-26T23:48:15.254Z,38.47
2017-09-26T23:50:42.831Z,39.27
2017-09-26T23:53:11.176Z,39.00
2017-09-26T23:55:38.856Z,38.20
2017-09-26T23:58:06.445Z,38.20
